sensor_id;sensor_type;location;lat;lon;timestamp;P1;durP1;ratioP1;P2;durP2;ratioP2
33491;SDS011;20010;51.488;7.232;2023-06-14T00:00:44;11.70;;;10.90;;
33491;SDS011;20010;51.488;7.232;2023-06-14T00:03:11;12.32;;;11.48;;
33491;SDS011;20010;51.488;7.232;2023-06-14T00:05:38;13.00;;;12.13;;
33491;SDS011;20010;51.488;7.232;2023-06-14T00:08:09;12.88;;;11.85;;
33491;SDS011;20010;51.488;7.232;2023-06-14T00:10:37;13.23;;;12.23;;
33491;SDS011;20010;51.488;7.232;2023-06-14T00:13:05;12.43;;;11.48;;
33491;SDS011;20010;51.488;7.232;2023-06-14T00:15:33;12.20;;;11.40;;
33491;SDS011;20010;51.488;7.232;2023-06-14T00:18:00;12.48;;;11.68;;
33491;SDS011;20010;51.488;7.232;2023-06-14T00:20:28;13.07;;;12.07;;
33491;SDS011;20010;51.488;7.232;2023-06-14T00:22:57;13.10;;;12.05;;
33491;SDS011;20010;51.488;7.232;2023-06-14T00:25:24;12.35;;;11.45;;
33491;SDS011;20010;51.488;7.232;2023-06-14T00:27:55;12.00;;;11.30;;
33491;SDS011;20010;51.488;7.232;2023-06-14T00:30:22;12.52;;;11.73;;
33491;SDS011;20010;51.488;7.232;2023-06-14T00:32:49;11.43;;;10.77;;
33491;SDS011;20010;51.488;7.232;2023-06-14T00:35:16;13.38;;;12.43;;
33491;SDS011;20010;51.488;7.232;2023-06-14T00:37:43;13.10;;;12.10;;
33491;SDS011;20010;51.488;7.232;2023-06-14T00:40:10;11.55;;;10.75;;
33491;SDS011;20010;51.488;7.232;2023-06-14T00:42:37;12.20;;;11.40;;
33491;SDS011;20010;51.488;7.232;2023-06-14T00:45:05;12.20;;;11.40;;
33491;SDS011;20010;51.488;7.232;2023-06-14T00:47:32;11.88;;;11.18;;
33491;SDS011;20010;51.488;7.232;2023-06-14T00:49:58;12.32;;;11.52;;
33491;SDS011;20010;51.488;7.232;2023-06-14T00:52:25;11.95;;;11.20;;
33491;SDS011;20010;51.488;7.232;2023-06-14T00:54:52;11.88;;;11.02;;
33491;SDS011;20010;51.488;7.232;2023-06-14T00:57:19;11.50;;;10.50;;
33491;SDS011;20010;51.488;7.232;2023-06-14T00:59:48;11.10;;;10.50;;
33491;SDS011;20010;51.488;7.232;2023-06-14T01:02:15;11.13;;;10.45;;
33491;SDS011;20010;51.488;7.232;2023-06-14T01:04:44;11.68;;;10.73;;
33491;SDS011;20010;51.488;7.232;2023-06-14T01:12:58;12.55;;;11.60;;
33491;SDS011;20010;51.488;7.232;2023-06-14T01:15:49;13.93;;;12.82;;
33491;SDS011;20010;51.488;7.232;2023-06-14T01:18:17;12.95;;;11.82;;
33491;SDS011;20010;51.488;7.232;2023-06-14T01:20:45;12.90;;;11.88;;
33491;SDS011;20010;51.488;7.232;2023-06-14T01:23:16;12.75;;;11.75;;
33491;SDS011;20010;51.488;7.232;2023-06-14T01:25:43;11.95;;;11.07;;
33491;SDS011;20010;51.488;7.232;2023-06-14T01:28:11;11.50;;;10.70;;
33491;SDS011;20010;51.488;7.232;2023-06-14T01:30:39;12.52;;;11.60;;
33491;SDS011;20010;51.488;7.232;2023-06-14T01:33:15;12.18;;;11.13;;
33491;SDS011;20010;51.488;7.232;2023-06-14T01:35:47;12.60;;;11.70;;
33491;SDS011;20010;51.488;7.232;2023-06-14T01:38:17;12.73;;;11.90;;
33491;SDS011;20010;51.488;7.232;2023-06-14T01:40:45;13.53;;;12.33;;
33491;SDS011;20010;51.488;7.232;2023-06-14T01:43:13;12.43;;;11.63;;
33491;SDS011;20010;51.488;7.232;2023-06-14T01:45:41;13.15;;;11.93;;
33491;SDS011;20010;51.488;7.232;2023-06-14T01:48:08;12.23;;;11.43;;
33491;SDS011;20010;51.488;7.232;2023-06-14T01:50:35;12.77;;;11.88;;
33491;SDS011;20010;51.488;7.232;2023-06-14T01:53:02;11.93;;;11.13;;
33491;SDS011;20010;51.488;7.232;2023-06-14T01:55:29;13.55;;;12.35;;
33491;SDS011;20010;51.488;7.232;2023-06-14T01:57:55;12.65;;;11.65;;
33491;SDS011;20010;51.488;7.232;2023-06-14T02:00:42;12.35;;;11.15;;
33491;SDS011;20010;51.488;7.232;2023-06-14T02:03:10;12.50;;;11.70;;
33491;SDS011;20010;51.488;7.232;2023-06-14T02:05:37;12.13;;;11.13;;
33491;SDS011;20010;51.488;7.232;2023-06-14T02:08:06;12.45;;;11.35;;
33491;SDS011;20010;51.488;7.232;2023-06-14T02:10:33;12.15;;;11.35;;
33491;SDS011;20010;51.488;7.232;2023-06-14T02:13:02;12.38;;;11.27;;
33491;SDS011;20010;51.488;7.232;2023-06-14T02:15:28;12.48;;;11.57;;
33491;SDS011;20010;51.488;7.232;2023-06-14T02:18:03;12.85;;;11.82;;
33491;SDS011;20010;51.488;7.232;2023-06-14T02:20:31;11.82;;;11.00;;
33491;SDS011;20010;51.488;7.232;2023-06-14T02:22:57;12.45;;;11.48;;
33491;SDS011;20010;51.488;7.232;2023-06-14T02:25:24;12.18;;;11.38;;
33491;SDS011;20010;51.488;7.232;2023-06-14T02:27:51;12.98;;;11.85;;
33491;SDS011;20010;51.488;7.232;2023-06-14T02:30:17;12.70;;;11.70;;
33491;SDS011;20010;51.488;7.232;2023-06-14T02:32:44;11.80;;;11.00;;
33491;SDS011;20010;51.488;7.232;2023-06-14T02:35:11;11.80;;;11.00;;
33491;SDS011;20010;51.488;7.232;2023-06-14T02:37:37;12.30;;;11.32;;
33491;SDS011;20010;51.488;7.232;2023-06-14T02:40:04;12.35;;;11.32;;
33491;SDS011;20010;51.488;7.232;2023-06-14T02:42:32;11.93;;;11.13;;
33491;SDS011;20010;51.488;7.232;2023-06-14T02:44:59;11.95;;;11.00;;
33491;SDS011;20010;51.488;7.232;2023-06-14T02:47:25;11.85;;;10.95;;
33491;SDS011;20010;51.488;7.232;2023-06-14T02:49:52;11.70;;;10.55;;
33491;SDS011;20010;51.488;7.232;2023-06-14T02:52:18;12.88;;;11.45;;
33491;SDS011;20010;51.488;7.232;2023-06-14T02:54:46;11.70;;;10.90;;
33491;SDS011;20010;51.488;7.232;2023-06-14T02:57:13;11.23;;;10.43;;
33491;SDS011;20010;51.488;7.232;2023-06-14T02:59:40;11.18;;;10.48;;
33491;SDS011;20010;51.488;7.232;2023-06-14T03:02:06;10.63;;;9.95;;
33491;SDS011;20010;51.488;7.232;2023-06-14T03:04:33;11.05;;;10.18;;
33491;SDS011;20010;51.488;7.232;2023-06-14T03:07:03;11.23;;;10.20;;
33491;SDS011;20010;51.488;7.232;2023-06-14T03:09:35;10.45;;;9.85;;
33491;SDS011;20010;51.488;7.232;2023-06-14T03:12:04;11.32;;;10.50;;
33491;SDS011;20010;51.488;7.232;2023-06-14T03:14:31;11.13;;;10.23;;
33491;SDS011;20010;51.488;7.232;2023-06-14T03:16:58;12.05;;;10.90;;
33491;SDS011;20010;51.488;7.232;2023-06-14T03:19:25;12.65;;;11.30;;
33491;SDS011;20010;51.488;7.232;2023-06-14T03:21:52;12.20;;;11.00;;
33491;SDS011;20010;51.488;7.232;2023-06-14T03:24:19;11.15;;;10.38;;
33491;SDS011;20010;51.488;7.232;2023-06-14T03:26:46;11.13;;;10.30;;
33491;SDS011;20010;51.488;7.232;2023-06-14T03:29:13;11.68;;;10.77;;
33491;SDS011;20010;51.488;7.232;2023-06-14T03:31:55;11.80;;;10.80;;
33491;SDS011;20010;51.488;7.232;2023-06-14T03:34:25;10.93;;;10.02;;
33491;SDS011;20010;51.488;7.232;2023-06-14T03:36:52;11.15;;;10.45;;
33491;SDS011;20010;51.488;7.232;2023-06-14T03:39:19;11.93;;;10.35;;
33491;SDS011;20010;51.488;7.232;2023-06-14T03:41:46;11.45;;;10.65;;
33491;SDS011;20010;51.488;7.232;2023-06-14T03:44:14;11.00;;;9.98;;
33491;SDS011;20010;51.488;7.232;2023-06-14T03:46:42;11.18;;;10.48;;
33491;SDS011;20010;51.488;7.232;2023-06-14T03:49:09;10.25;;;9.55;;
33491;SDS011;20010;51.488;7.232;2023-06-14T03:51:38;11.63;;;10.80;;
33491;SDS011;20010;51.488;7.232;2023-06-14T03:54:06;12.75;;;11.95;;
33491;SDS011;20010;51.488;7.232;2023-06-14T03:56:53;11.82;;;11.02;;
33491;SDS011;20010;51.488;7.232;2023-06-14T03:59:19;10.30;;;9.63;;
33491;SDS011;20010;51.488;7.232;2023-06-14T04:01:46;11.18;;;10.25;;
33491;SDS011;20010;51.488;7.232;2023-06-14T04:04:13;12.73;;;11.75;;
33491;SDS011;20010;51.488;7.232;2023-06-14T04:06:39;11.60;;;10.80;;
33491;SDS011;20010;51.488;7.232;2023-06-14T04:09:07;11.85;;;10.70;;
33491;SDS011;20010;51.488;7.232;2023-06-14T04:11:34;11.88;;;10.82;;
33491;SDS011;20010;51.488;7.232;2023-06-14T04:14:01;10.93;;;10.30;;
33491;SDS011;20010;51.488;7.232;2023-06-14T04:16:28;11.18;;;10.20;;
33491;SDS011;20010;51.488;7.232;2023-06-14T04:18:55;11.48;;;10.63;;
33491;SDS011;20010;51.488;7.232;2023-06-14T04:21:22;10.20;;;9.32;;
33491;SDS011;20010;51.488;7.232;2023-06-14T04:23:50;11.48;;;10.57;;
33491;SDS011;20010;51.488;7.232;2023-06-14T04:26:19;10.93;;;9.98;;
33491;SDS011;20010;51.488;7.232;2023-06-14T04:28:49;10.77;;;9.82;;
33491;SDS011;20010;51.488;7.232;2023-06-14T04:31:17;9.60;;;8.85;;
33491;SDS011;20010;51.488;7.232;2023-06-14T04:33:44;10.88;;;10.07;;
33491;SDS011;20010;51.488;7.232;2023-06-14T04:36:13;9.70;;;8.90;;
33491;SDS011;20010;51.488;7.232;2023-06-14T04:38:40;10.10;;;9.30;;
33491;SDS011;20010;51.488;7.232;2023-06-14T04:41:07;10.75;;;9.90;;
33491;SDS011;20010;51.488;7.232;2023-06-14T04:43:37;10.68;;;9.88;;
33491;SDS011;20010;51.488;7.232;2023-06-14T04:46:05;10.52;;;9.63;;
33491;SDS011;20010;51.488;7.232;2023-06-14T04:48:32;10.27;;;9.55;;
33491;SDS011;20010;51.488;7.232;2023-06-14T04:50:59;10.95;;;9.88;;
33491;SDS011;20010;51.488;7.232;2023-06-14T04:53:25;10.50;;;9.70;;
33491;SDS011;20010;51.488;7.232;2023-06-14T04:55:55;13.18;;;11.82;;
33491;SDS011;20010;51.488;7.232;2023-06-14T04:58:21;10.80;;;10.05;;
33491;SDS011;20010;51.488;7.232;2023-06-14T05:00:48;11.60;;;10.70;;
33491;SDS011;20010;51.488;7.232;2023-06-14T05:03:15;10.05;;;8.85;;
33491;SDS011;20010;51.488;7.232;2023-06-14T05:05:42;14.02;;;9.82;;
33491;SDS011;20010;51.488;7.232;2023-06-14T05:08:08;12.18;;;11.30;;
33491;SDS011;20010;51.488;7.232;2023-06-14T05:10:35;10.95;;;10.05;;
33491;SDS011;20010;51.488;7.232;2023-06-14T05:13:02;11.07;;;10.32;;
33491;SDS011;20010;51.488;7.232;2023-06-14T05:15:29;10.38;;;9.57;;
33491;SDS011;20010;51.488;7.232;2023-06-14T05:17:56;10.10;;;9.40;;
33491;SDS011;20010;51.488;7.232;2023-06-14T05:20:23;11.35;;;10.32;;
33491;SDS011;20010;51.488;7.232;2023-06-14T05:22:52;10.40;;;9.35;;
33491;SDS011;20010;51.488;7.232;2023-06-14T05:25:19;11.40;;;9.93;;
33491;SDS011;20010;51.488;7.232;2023-06-14T05:27:47;10.90;;;10.00;;
33491;SDS011;20010;51.488;7.232;2023-06-14T05:30:14;10.38;;;9.68;;
33491;SDS011;20010;51.488;7.232;2023-06-14T05:32:41;10.68;;;9.90;;
33491;SDS011;20010;51.488;7.232;2023-06-14T05:35:08;12.98;;;11.70;;
33491;SDS011;20010;51.488;7.232;2023-06-14T05:37:36;15.48;;;10.43;;
33491;SDS011;20010;51.488;7.232;2023-06-14T05:40:03;14.40;;;9.95;;
33491;SDS011;20010;51.488;7.232;2023-06-14T05:42:33;10.45;;;9.57;;
33491;SDS011;20010;51.488;7.232;2023-06-14T05:45:00;10.35;;;9.35;;
33491;SDS011;20010;51.488;7.232;2023-06-14T05:47:27;9.88;;;9.07;;
33491;SDS011;20010;51.488;7.232;2023-06-14T05:49:54;10.70;;;9.50;;
33491;SDS011;20010;51.488;7.232;2023-06-14T05:52:21;13.48;;;9.27;;
33491;SDS011;20010;51.488;7.232;2023-06-14T05:54:48;9.70;;;8.90;;
33491;SDS011;20010;51.488;7.232;2023-06-14T05:57:14;10.07;;;9.27;;
33491;SDS011;20010;51.488;7.232;2023-06-14T05:59:41;10.18;;;9.27;;
33491;SDS011;20010;51.488;7.232;2023-06-14T06:02:07;10.23;;;9.43;;
33491;SDS011;20010;51.488;7.232;2023-06-14T06:04:34;9.82;;;8.85;;
33491;SDS011;20010;51.488;7.232;2023-06-14T06:07:01;9.70;;;9.10;;
33491;SDS011;20010;51.488;7.232;2023-06-14T06:09:27;10.05;;;9.20;;
33491;SDS011;20010;51.488;7.232;2023-06-14T06:11:54;10.02;;;8.77;;
33491;SDS011;20010;51.488;7.232;2023-06-14T06:14:21;10.52;;;9.73;;
33491;SDS011;20010;51.488;7.232;2023-06-14T06:16:47;9.73;;;8.82;;
33491;SDS011;20010;51.488;7.232;2023-06-14T06:19:14;10.25;;;9.45;;
33491;SDS011;20010;51.488;7.232;2023-06-14T06:21:41;10.00;;;9.00;;
33491;SDS011;20010;51.488;7.232;2023-06-14T06:24:08;9.60;;;8.82;;
33491;SDS011;20010;51.488;7.232;2023-06-14T06:26:34;10.05;;;9.23;;
33491;SDS011;20010;51.488;7.232;2023-06-14T06:29:01;9.60;;;8.68;;
33491;SDS011;20010;51.488;7.232;2023-06-14T06:31:28;10.30;;;9.45;;
33491;SDS011;20010;51.488;7.232;2023-06-14T06:33:55;9.95;;;8.95;;
33491;SDS011;20010;51.488;7.232;2023-06-14T06:36:21;10.35;;;9.50;;
33491;SDS011;20010;51.488;7.232;2023-06-14T06:38:48;10.70;;;9.80;;
33491;SDS011;20010;51.488;7.232;2023-06-14T06:41:14;9.77;;;9.00;;
33491;SDS011;20010;51.488;7.232;2023-06-14T06:43:41;10.27;;;9.52;;
33491;SDS011;20010;51.488;7.232;2023-06-14T06:46:07;11.45;;;10.65;;
33491;SDS011;20010;51.488;7.232;2023-06-14T06:48:34;10.32;;;9.70;;
33491;SDS011;20010;51.488;7.232;2023-06-14T06:51:01;10.20;;;9.50;;
33491;SDS011;20010;51.488;7.232;2023-06-14T06:53:27;10.10;;;9.40;;
33491;SDS011;20010;51.488;7.232;2023-06-14T06:56:06;9.48;;;8.93;;
33491;SDS011;20010;51.488;7.232;2023-06-14T06:58:33;10.32;;;9.30;;
33491;SDS011;20010;51.488;7.232;2023-06-14T07:01:00;9.40;;;8.80;;
33491;SDS011;20010;51.488;7.232;2023-06-14T07:03:27;10.13;;;9.23;;
33491;SDS011;20010;51.488;7.232;2023-06-14T07:05:53;10.35;;;9.50;;
33491;SDS011;20010;51.488;7.232;2023-06-14T07:08:20;10.10;;;9.43;;
33491;SDS011;20010;51.488;7.232;2023-06-14T07:10:46;9.00;;;8.50;;
33491;SDS011;20010;51.488;7.232;2023-06-14T07:13:13;9.93;;;9.05;;
33491;SDS011;20010;51.488;7.232;2023-06-14T07:15:40;8.75;;;8.10;;
33491;SDS011;20010;51.488;7.232;2023-06-14T07:18:06;9.68;;;8.82;;
33491;SDS011;20010;51.488;7.232;2023-06-14T07:20:34;9.65;;;8.80;;
33491;SDS011;20010;51.488;7.232;2023-06-14T07:23:01;9.85;;;8.98;;
33491;SDS011;20010;51.488;7.232;2023-06-14T07:25:27;10.00;;;9.40;;
33491;SDS011;20010;51.488;7.232;2023-06-14T07:27:54;9.30;;;8.80;;
33491;SDS011;20010;51.488;7.232;2023-06-14T07:30:21;9.48;;;8.75;;
33491;SDS011;20010;51.488;7.232;2023-06-14T07:32:55;9.57;;;8.82;;
33491;SDS011;20010;51.488;7.232;2023-06-14T07:35:22;9.23;;;8.73;;
33491;SDS011;20010;51.488;7.232;2023-06-14T07:37:49;9.30;;;8.70;;
33491;SDS011;20010;51.488;7.232;2023-06-14T07:40:16;9.25;;;8.48;;
33491;SDS011;20010;51.488;7.232;2023-06-14T07:42:45;9.80;;;8.95;;
33491;SDS011;20010;51.488;7.232;2023-06-14T07:45:14;8.82;;;8.32;;
33491;SDS011;20010;51.488;7.232;2023-06-14T07:47:42;8.82;;;8.43;;
33491;SDS011;20010;51.488;7.232;2023-06-14T07:50:09;9.07;;;8.48;;
33491;SDS011;20010;51.488;7.232;2023-06-14T07:52:36;9.43;;;8.52;;
33491;SDS011;20010;51.488;7.232;2023-06-14T07:55:02;8.73;;;8.32;;
33491;SDS011;20010;51.488;7.232;2023-06-14T07:57:29;9.27;;;8.55;;
33491;SDS011;20010;51.488;7.232;2023-06-14T07:59:56;11.15;;;8.93;;
33491;SDS011;20010;51.488;7.232;2023-06-14T08:02:23;10.00;;;9.00;;
33491;SDS011;20010;51.488;7.232;2023-06-14T08:04:49;8.85;;;8.10;;
33491;SDS011;20010;51.488;7.232;2023-06-14T08:07:16;9.18;;;8.52;;
33491;SDS011;20010;51.488;7.232;2023-06-14T08:09:48;8.63;;;8.18;;
33491;SDS011;20010;51.488;7.232;2023-06-14T08:12:15;9.07;;;8.50;;
33491;SDS011;20010;51.488;7.232;2023-06-14T08:14:43;8.57;;;8.18;;
33491;SDS011;20010;51.488;7.232;2023-06-14T08:17:09;9.05;;;8.60;;
33491;SDS011;20010;51.488;7.232;2023-06-14T08:19:36;8.77;;;8.10;;
33491;SDS011;20010;51.488;7.232;2023-06-14T08:22:03;9.55;;;8.75;;
33491;SDS011;20010;51.488;7.232;2023-06-14T08:24:30;8.65;;;8.10;;
33491;SDS011;20010;51.488;7.232;2023-06-14T08:26:57;8.70;;;8.20;;
33491;SDS011;20010;51.488;7.232;2023-06-14T08:29:24;8.73;;;8.23;;
33491;SDS011;20010;51.488;7.232;2023-06-14T08:31:50;8.07;;;7.57;;
33491;SDS011;20010;51.488;7.232;2023-06-14T08:34:17;9.05;;;8.35;;
33491;SDS011;20010;51.488;7.232;2023-06-14T08:36:43;8.85;;;8.20;;
33491;SDS011;20010;51.488;7.232;2023-06-14T08:39:10;9.00;;;8.25;;
33491;SDS011;20010;51.488;7.232;2023-06-14T08:41:37;8.80;;;8.30;;
33491;SDS011;20010;51.488;7.232;2023-06-14T08:44:04;8.05;;;7.43;;
33491;SDS011;20010;51.488;7.232;2023-06-14T08:46:32;8.07;;;7.45;;
33491;SDS011;20010;51.488;7.232;2023-06-14T08:49:00;7.90;;;7.50;;
33491;SDS011;20010;51.488;7.232;2023-06-14T08:51:28;9.15;;;8.57;;
33491;SDS011;20010;51.488;7.232;2023-06-14T08:54:00;8.40;;;8.02;;
33491;SDS011;20010;51.488;7.232;2023-06-14T08:56:28;8.10;;;7.60;;
33491;SDS011;20010;51.488;7.232;2023-06-14T08:58:56;7.65;;;7.22;;
33491;SDS011;20010;51.488;7.232;2023-06-14T09:01:33;7.63;;;7.22;;
33491;SDS011;20010;51.488;7.232;2023-06-14T09:06:28;7.88;;;7.30;;
33491;SDS011;20010;51.488;7.232;2023-06-14T09:08:55;13.18;;;7.50;;
33491;SDS011;20010;51.488;7.232;2023-06-14T09:11:24;8.00;;;7.60;;
33491;SDS011;20010;51.488;7.232;2023-06-14T09:13:53;8.88;;;8.18;;
33491;SDS011;20010;51.488;7.232;2023-06-14T09:16:19;7.93;;;7.43;;
33491;SDS011;20010;51.488;7.232;2023-06-14T09:18:47;8.07;;;7.70;;
33491;SDS011;20010;51.488;7.232;2023-06-14T09:21:15;8.18;;;7.63;;
33491;SDS011;20010;51.488;7.232;2023-06-14T09:23:44;8.07;;;7.68;;
33491;SDS011;20010;51.488;7.232;2023-06-14T09:26:12;7.95;;;7.50;;
33491;SDS011;20010;51.488;7.232;2023-06-14T09:28:41;7.13;;;6.65;;
33491;SDS011;20010;51.488;7.232;2023-06-14T09:31:10;7.60;;;7.18;;
33491;SDS011;20010;51.488;7.232;2023-06-14T09:33:38;7.60;;;7.20;;
33491;SDS011;20010;51.488;7.232;2023-06-14T09:36:08;8.50;;;7.75;;
33491;SDS011;20010;51.488;7.232;2023-06-14T09:38:37;8.25;;;7.75;;
33491;SDS011;20010;51.488;7.232;2023-06-14T09:41:06;7.47;;;6.90;;
33491;SDS011;20010;51.488;7.232;2023-06-14T09:43:33;7.68;;;7.30;;
33491;SDS011;20010;51.488;7.232;2023-06-14T09:46:00;8.73;;;8.13;;
33491;SDS011;20010;51.488;7.232;2023-06-14T09:48:27;7.10;;;6.70;;
33491;SDS011;20010;51.488;7.232;2023-06-14T09:50:54;7.78;;;7.45;;
33491;SDS011;20010;51.488;7.232;2023-06-14T09:53:21;7.63;;;7.32;;
33491;SDS011;20010;51.488;7.232;2023-06-14T09:55:51;7.82;;;7.20;;
33491;SDS011;20010;51.488;7.232;2023-06-14T09:58:19;8.18;;;7.60;;
33491;SDS011;20010;51.488;7.232;2023-06-14T10:00:47;7.50;;;7.10;;
33491;SDS011;20010;51.488;7.232;2023-06-14T10:03:21;8.00;;;7.40;;
33491;SDS011;20010;51.488;7.232;2023-06-14T10:05:51;7.72;;;7.20;;
33491;SDS011;20010;51.488;7.232;2023-06-14T10:08:18;8.18;;;7.55;;
33491;SDS011;20010;51.488;7.232;2023-06-14T10:10:46;7.97;;;7.40;;
33491;SDS011;20010;51.488;7.232;2023-06-14T10:13:13;7.90;;;7.40;;
33491;SDS011;20010;51.488;7.232;2023-06-14T10:21:20;7.32;;;7.00;;
33491;SDS011;20010;51.488;7.232;2023-06-14T10:23:49;7.85;;;7.45;;
33491;SDS011;20010;51.488;7.232;2023-06-14T10:26:23;7.70;;;7.20;;
33491;SDS011;20010;51.488;7.232;2023-06-14T10:29:23;7.43;;;7.03;;
33491;SDS011;20010;51.488;7.232;2023-06-14T10:31:43;7.80;;;7.20;;
33491;SDS011;20010;51.488;7.232;2023-06-14T10:34:29;7.93;;;7.40;;
33491;SDS011;20010;51.488;7.232;2023-06-14T10:37:07;7.80;;;7.43;;
33491;SDS011;20010;51.488;7.232;2023-06-14T10:42:06;7.90;;;7.40;;
33491;SDS011;20010;51.488;7.232;2023-06-14T10:47:09;7.90;;;7.10;;
33491;SDS011;20010;51.488;7.232;2023-06-14T10:52:07;7.60;;;7.10;;
33491;SDS011;20010;51.488;7.232;2023-06-14T10:54:38;7.20;;;6.80;;
33491;SDS011;20010;51.488;7.232;2023-06-14T10:57:06;7.32;;;6.75;;
33491;SDS011;20010;51.488;7.232;2023-06-14T10:59:33;8.13;;;7.32;;
33491;SDS011;20010;51.488;7.232;2023-06-14T11:04:51;5.97;;;5.55;;
33491;SDS011;20010;51.488;7.232;2023-06-14T11:12:26;7.40;;;7.00;;
33491;SDS011;20010;51.488;7.232;2023-06-14T11:14:54;6.35;;;6.00;;
33491;SDS011;20010;51.488;7.232;2023-06-14T11:17:21;8.20;;;6.75;;
33491;SDS011;20010;51.488;7.232;2023-06-14T11:19:48;7.43;;;6.35;;
33491;SDS011;20010;51.488;7.232;2023-06-14T11:22:14;7.43;;;6.70;;
33491;SDS011;20010;51.488;7.232;2023-06-14T11:24:42;7.03;;;6.60;;
33491;SDS011;20010;51.488;7.232;2023-06-14T11:27:09;7.18;;;6.88;;
33491;SDS011;20010;51.488;7.232;2023-06-14T11:29:35;7.78;;;7.28;;
33491;SDS011;20010;51.488;7.232;2023-06-14T11:32:02;7.93;;;7.18;;
33491;SDS011;20010;51.488;7.232;2023-06-14T11:34:29;7.45;;;7.00;;
33491;SDS011;20010;51.488;7.232;2023-06-14T11:36:56;7.90;;;7.30;;
33491;SDS011;20010;51.488;7.232;2023-06-14T11:39:26;7.72;;;7.20;;
33491;SDS011;20010;51.488;7.232;2023-06-14T11:41:53;7.28;;;6.97;;
33491;SDS011;20010;51.488;7.232;2023-06-14T11:44:21;7.18;;;6.70;;
33491;SDS011;20010;51.488;7.232;2023-06-14T11:46:48;6.70;;;6.07;;
33491;SDS011;20010;51.488;7.232;2023-06-14T11:49:16;6.88;;;6.47;;
33491;SDS011;20010;51.488;7.232;2023-06-14T11:51:43;7.38;;;6.80;;
33491;SDS011;20010;51.488;7.232;2023-06-14T11:54:11;7.47;;;7.03;;
33491;SDS011;20010;51.488;7.232;2023-06-14T11:56:38;10.50;;;6.90;;
33491;SDS011;20010;51.488;7.232;2023-06-14T11:59:04;7.57;;;7.18;;
33491;SDS011;20010;51.488;7.232;2023-06-14T12:01:35;7.18;;;6.57;;
33491;SDS011;20010;51.488;7.232;2023-06-14T12:04:03;7.57;;;6.95;;
33491;SDS011;20010;51.488;7.232;2023-06-14T12:06:30;7.60;;;6.90;;
33491;SDS011;20010;51.488;7.232;2023-06-14T12:09:03;7.85;;;7.35;;
33491;SDS011;20010;51.488;7.232;2023-06-14T12:11:40;7.35;;;6.85;;
33491;SDS011;20010;51.488;7.232;2023-06-14T12:14:07;7.68;;;7.10;;
33491;SDS011;20010;51.488;7.232;2023-06-14T12:16:35;7.00;;;6.68;;
33491;SDS011;20010;51.488;7.232;2023-06-14T12:19:14;6.90;;;6.40;;
33491;SDS011;20010;51.488;7.232;2023-06-14T12:21:42;7.05;;;6.60;;
33491;SDS011;20010;51.488;7.232;2023-06-14T12:24:11;7.38;;;6.97;;
33491;SDS011;20010;51.488;7.232;2023-06-14T12:26:39;7.20;;;6.78;;
33491;SDS011;20010;51.488;7.232;2023-06-14T12:29:07;7.03;;;6.65;;
33491;SDS011;20010;51.488;7.232;2023-06-14T12:31:34;8.18;;;7.68;;
33491;SDS011;20010;51.488;7.232;2023-06-14T12:34:01;7.55;;;7.03;;
33491;SDS011;20010;51.488;7.232;2023-06-14T12:36:28;6.82;;;6.53;;
33491;SDS011;20010;51.488;7.232;2023-06-14T12:38:54;7.30;;;6.80;;
33491;SDS011;20010;51.488;7.232;2023-06-14T12:41:21;7.22;;;6.65;;
33491;SDS011;20010;51.488;7.232;2023-06-14T12:43:48;6.85;;;6.50;;
33491;SDS011;20010;51.488;7.232;2023-06-14T12:46:15;7.05;;;6.43;;
33491;SDS011;20010;51.488;7.232;2023-06-14T12:48:42;6.93;;;6.43;;
33491;SDS011;20010;51.488;7.232;2023-06-14T12:51:08;6.72;;;6.20;;
33491;SDS011;20010;51.488;7.232;2023-06-14T12:53:35;7.32;;;6.88;;
33491;SDS011;20010;51.488;7.232;2023-06-14T12:56:02;7.82;;;7.10;;
33491;SDS011;20010;51.488;7.232;2023-06-14T12:58:28;7.43;;;7.03;;
33491;SDS011;20010;51.488;7.232;2023-06-14T13:00:55;7.60;;;6.95;;
33491;SDS011;20010;51.488;7.232;2023-06-14T13:03:21;7.10;;;6.70;;
33491;SDS011;20010;51.488;7.232;2023-06-14T13:05:48;7.20;;;6.68;;
33491;SDS011;20010;51.488;7.232;2023-06-14T13:08:15;6.85;;;6.30;;
33491;SDS011;20010;51.488;7.232;2023-06-14T13:10:42;6.97;;;6.30;;
33491;SDS011;20010;51.488;7.232;2023-06-14T13:13:08;9.73;;;6.30;;
33491;SDS011;20010;51.488;7.232;2023-06-14T13:15:35;6.68;;;6.15;;
33491;SDS011;20010;51.488;7.232;2023-06-14T13:18:01;6.78;;;6.28;;
33491;SDS011;20010;51.488;7.232;2023-06-14T13:20:30;7.45;;;6.95;;
33491;SDS011;20010;51.488;7.232;2023-06-14T13:22:56;7.05;;;6.45;;
33491;SDS011;20010;51.488;7.232;2023-06-14T13:25:23;8.18;;;7.00;;
33491;SDS011;20010;51.488;7.232;2023-06-14T13:27:50;6.93;;;6.60;;
33491;SDS011;20010;51.488;7.232;2023-06-14T13:30:16;7.05;;;6.65;;
33491;SDS011;20010;51.488;7.232;2023-06-14T13:32:43;6.75;;;6.45;;
33491;SDS011;20010;51.488;7.232;2023-06-14T13:35:13;6.70;;;6.15;;
33491;SDS011;20010;51.488;7.232;2023-06-14T13:37:40;6.88;;;6.45;;
33491;SDS011;20010;51.488;7.232;2023-06-14T13:40:07;8.27;;;6.38;;
33491;SDS011;20010;51.488;7.232;2023-06-14T13:42:33;6.75;;;6.25;;
33491;SDS011;20010;51.488;7.232;2023-06-14T13:45:05;7.55;;;6.90;;
33491;SDS011;20010;51.488;7.232;2023-06-14T13:49:59;7.45;;;6.75;;
33491;SDS011;20010;51.488;7.232;2023-06-14T13:52:25;7.20;;;6.80;;
33491;SDS011;20010;51.488;7.232;2023-06-14T13:54:52;6.55;;;6.15;;
33491;SDS011;20010;51.488;7.232;2023-06-14T13:57:19;7.70;;;7.00;;
33491;SDS011;20010;51.488;7.232;2023-06-14T13:59:46;6.80;;;6.50;;
33491;SDS011;20010;51.488;7.232;2023-06-14T14:02:13;7.10;;;6.47;;
33491;SDS011;20010;51.488;7.232;2023-06-14T14:04:39;7.32;;;6.82;;
33491;SDS011;20010;51.488;7.232;2023-06-14T14:07:07;7.55;;;7.03;;
33491;SDS011;20010;51.488;7.232;2023-06-14T14:09:34;7.20;;;6.80;;
33491;SDS011;20010;51.488;7.232;2023-06-14T14:12:01;6.82;;;6.32;;
33491;SDS011;20010;51.488;7.232;2023-06-14T14:14:29;7.05;;;6.47;;
33491;SDS011;20010;51.488;7.232;2023-06-14T14:16:57;7.45;;;6.72;;
33491;SDS011;20010;51.488;7.232;2023-06-14T14:19:24;7.22;;;6.63;;
33491;SDS011;20010;51.488;7.232;2023-06-14T14:21:50;6.53;;;6.20;;
33491;SDS011;20010;51.488;7.232;2023-06-14T14:24:17;9.18;;;8.27;;
33491;SDS011;20010;51.488;7.232;2023-06-14T14:26:44;7.80;;;6.97;;
33491;SDS011;20010;51.488;7.232;2023-06-14T14:29:10;6.68;;;6.38;;
33491;SDS011;20010;51.488;7.232;2023-06-14T14:31:37;9.02;;;7.25;;
33491;SDS011;20010;51.488;7.232;2023-06-14T14:34:04;7.00;;;6.50;;
33491;SDS011;20010;51.488;7.232;2023-06-14T14:36:31;8.82;;;7.00;;
33491;SDS011;20010;51.488;7.232;2023-06-14T14:39:00;6.57;;;6.28;;
33491;SDS011;20010;51.488;7.232;2023-06-14T14:41:27;6.72;;;6.32;;
33491;SDS011;20010;51.488;7.232;2023-06-14T14:43:54;7.30;;;6.70;;
33491;SDS011;20010;51.488;7.232;2023-06-14T14:46:20;6.43;;;5.93;;
33491;SDS011;20010;51.488;7.232;2023-06-14T14:48:47;6.90;;;6.15;;
33491;SDS011;20010;51.488;7.232;2023-06-14T14:51:14;5.78;;;5.47;;
33491;SDS011;20010;51.488;7.232;2023-06-14T14:53:41;6.30;;;5.70;;
33491;SDS011;20010;51.488;7.232;2023-06-14T14:56:07;7.90;;;7.25;;
33491;SDS011;20010;51.488;7.232;2023-06-14T14:58:34;6.70;;;6.20;;
33491;SDS011;20010;51.488;7.232;2023-06-14T15:01:02;6.88;;;6.47;;
33491;SDS011;20010;51.488;7.232;2023-06-14T15:03:29;7.18;;;6.60;;
33491;SDS011;20010;51.488;7.232;2023-06-14T15:06:24;7.72;;;7.20;;
33491;SDS011;20010;51.488;7.232;2023-06-14T15:08:50;7.45;;;6.88;;
33491;SDS011;20010;51.488;7.232;2023-06-14T15:11:18;7.50;;;6.80;;
33491;SDS011;20010;51.488;7.232;2023-06-14T15:13:44;7.72;;;6.75;;